createdAt,value
2023-01-12T00:01:29.480Z,65.39
2023-01-12T00:03:56.512Z,65.42
2023-01-12T00:06:23.477Z,65.47
2023-01-12T00:08:51.011Z,65.47
2023-01-12T00:11:17.978Z,65.40
2023-01-12T00:13:44.789Z,65.51
2023-01-12T00:16:37.056Z,65.53
2023-01-12T00:19:11.080Z,65.43
2023-01-12T00:21:58.720Z,65.44
2023-01-12T00:24:27.141Z,65.61
2023-01-12T00:26:54.553Z,65.42
2023-01-12T00:29:21.574Z,65.64
2023-01-12T00:31:48.357Z,65.53
2023-01-12T00:34:15.262Z,65.73
2023-01-12T00:36:42.046Z,65.62
2023-01-12T00:39:08.944Z,65.66
2023-01-12T00:41:56.701Z,65.53
2023-01-12T00:44:42.828Z,65.77
2023-01-12T00:47:10.009Z,65.81
2023-01-12T00:49:37.016Z,66.08
2023-01-12T00:52:06.079Z,66.07
2023-01-12T00:54:34.455Z,66.10
2023-01-12T00:57:01.945Z,66.26
2023-01-12T00:59:29.339Z,65.99
2023-01-12T01:01:56.435Z,66.11
2023-01-12T01:04:24.182Z,66.03
2023-01-12T01:06:51.065Z,66.07
2023-01-12T01:09:17.894Z,66.08
2023-01-12T01:11:44.665Z,66.40
2023-01-12T01:14:11.472Z,66.37
2023-01-12T01:16:38.253Z,66.10
2023-01-12T01:19:05.983Z,66.05
2023-01-12T01:21:33.509Z,66.09
2023-01-12T01:24:00.425Z,66.02
2023-01-12T01:26:27.301Z,65.99
2023-01-12T01:28:54.100Z,66.04
2023-01-12T01:31:22.487Z,65.75
2023-01-12T01:33:49.595Z,65.81
2023-01-12T01:36:16.547Z,65.88
2023-01-12T01:38:44.607Z,65.78
2023-01-12T01:41:23.272Z,65.81
2023-01-12T01:44:02.927Z,65.80
2023-01-12T01:46:31.769Z,65.71
2023-01-12T01:49:10.282Z,65.90
2023-01-12T01:51:37.104Z,65.81
2023-01-12T01:54:04.025Z,65.85
2023-01-12T01:56:33.981Z,65.99
2023-01-12T01:59:21.304Z,65.99
2023-01-12T02:01:48.153Z,66.23
2023-01-12T02:04:15.944Z,66.02
2023-01-12T02:06:43.462Z,66.16
2023-01-12T02:09:15.244Z,66.08
2023-01-12T02:12:01.319Z,66.08
2023-01-12T02:14:47.020Z,66.25
2023-01-12T02:17:40.386Z,66.38
2023-01-12T02:20:48.711Z,66.42
2023-01-12T02:23:38.806Z,66.34
2023-01-12T02:26:35.806Z,66.56
2023-01-12T02:29:21.608Z,67.33
2023-01-12T02:32:23.543Z,67.77
2023-01-12T02:34:56.496Z,68.07
2023-01-12T02:37:39.171Z,68.22
2023-01-12T02:40:23.996Z,68.53
2023-01-12T02:43:09.792Z,69.26
2023-01-12T02:45:51.297Z,69.73
2023-01-12T02:48:22.612Z,69.77
2023-01-12T02:50:52.015Z,69.67
2023-01-12T02:53:29.662Z,70.10
2023-01-12T02:55:57.898Z,70.61
2023-01-12T02:58:24.682Z,70.65
2023-01-12T03:00:51.905Z,70.53
2023-01-12T03:03:19.438Z,70.76
2023-01-12T03:05:47.663Z,70.73
2023-01-12T03:08:16.700Z,70.55
2023-01-12T03:10:58.846Z,71.10
2023-01-12T03:13:25.594Z,70.99
2023-01-12T03:15:53.701Z,71.23
2023-01-12T03:18:59.877Z,71.27
2023-01-12T03:21:33.092Z,71.24
2023-01-12T03:24:12.078Z,71.15
2023-01-12T03:26:43.188Z,71.08
2023-01-12T03:29:25.397Z,71.18
2023-01-12T03:31:52.090Z,71.16
2023-01-12T03:34:18.893Z,70.93
2023-01-12T03:36:46.799Z,70.71
2023-01-12T03:39:44.758Z,70.41
2023-01-12T03:42:11.421Z,70.09
2023-01-12T03:44:43.042Z,69.96
2023-01-12T03:47:17.151Z,69.54
2023-01-12T03:49:55.750Z,69.76
2023-01-12T03:52:22.542Z,69.29
2023-01-12T03:54:49.443Z,69.56
2023-01-12T03:57:17.173Z,69.57
2023-01-12T03:59:43.986Z,69.75
2023-01-12T04:02:10.700Z,69.70
2023-01-12T04:04:37.385Z,69.54
2023-01-12T04:07:04.159Z,69.93
2023-01-12T04:09:30.958Z,70.12
2023-01-12T04:12:13.079Z,70.42
2023-01-12T04:14:43.252Z,70.45
2023-01-12T04:17:11.790Z,70.32
2023-01-12T04:19:38.572Z,70.04
2023-01-12T04:22:24.122Z,70.23
2023-01-12T04:24:50.867Z,70.22
2023-01-12T04:27:17.782Z,70.64
2023-01-12T04:29:44.898Z,70.60
2023-01-12T04:32:11.996Z,70.42
2023-01-12T04:34:39.628Z,70.79
2023-01-12T04:37:06.435Z,71.14
2023-01-12T04:39:33.166Z,71.02
2023-01-12T04:41:59.905Z,70.94
2023-01-12T04:44:26.596Z,71.16
2023-01-12T04:46:53.292Z,71.18
2023-01-12T04:49:20.169Z,71.20
2023-01-12T04:51:46.991Z,71.04
2023-01-12T04:54:13.751Z,71.30
2023-01-12T04:56:40.754Z,71.74
2023-01-12T04:59:09.879Z,71.64
2023-01-12T05:01:39.207Z,71.52
2023-01-12T05:04:07.958Z,71.61
2023-01-12T05:06:34.849Z,71.63
2023-01-12T05:09:20.444Z,71.62
2023-01-12T05:11:47.314Z,71.67
2023-01-12T05:14:14.058Z,71.80
2023-01-12T05:16:40.810Z,71.79
2023-01-12T05:19:08.671Z,71.95
2023-01-12T05:21:35.384Z,71.92
2023-01-12T05:24:02.087Z,71.91
2023-01-12T05:26:28.787Z,71.98
2023-01-12T05:28:55.546Z,72.22
2023-01-12T05:31:22.248Z,72.27
2023-01-12T05:33:49.136Z,72.45
2023-01-12T05:36:16.356Z,72.51
2023-01-12T05:38:43.151Z,73.04
2023-01-12T05:41:10.899Z,73.21
2023-01-12T05:43:53.208Z,73.44
2023-01-12T05:46:30.682Z,73.84
2023-01-12T05:48:57.904Z,73.92
2023-01-12T05:51:25.707Z,74.04
2023-01-12T05:53:52.548Z,74.36
2023-01-12T05:56:25.874Z,74.57
2023-01-12T05:58:53.933Z,74.40
2023-01-12T06:01:20.756Z,74.45
2023-01-12T06:03:54.314Z,74.42
2023-01-12T06:06:21.641Z,73.97
2023-01-12T06:08:50.642Z,73.93
2023-01-12T06:11:37.740Z,74.10
2023-01-12T06:14:04.517Z,74.35
2023-01-12T06:16:31.278Z,74.18
2023-01-12T06:18:57.970Z,74.09
2023-01-12T06:21:24.803Z,74.31
2023-01-12T06:23:51.777Z,74.55
2023-01-12T06:26:18.569Z,74.58
2023-01-12T06:28:45.281Z,74.74
2023-01-12T06:31:12.824Z,74.87
2023-01-12T06:33:39.919Z,74.67
2023-01-12T06:36:07.336Z,74.98
2023-01-12T06:38:34.871Z,75.20
2023-01-12T06:41:06.039Z,75.54
2023-01-12T06:43:32.850Z,75.56
2023-01-12T06:45:59.604Z,75.87
2023-01-12T06:48:26.430Z,76.13
2023-01-12T06:51:06.100Z,76.21
2023-01-12T06:53:32.818Z,76.59
2023-01-12T06:55:59.560Z,76.52
2023-01-12T06:58:26.273Z,76.88
2023-01-12T07:00:53.071Z,77.23
2023-01-12T07:03:20.399Z,77.11
2023-01-12T07:05:47.355Z,77.37
2023-01-12T07:08:19.109Z,77.60
2023-01-12T07:10:46.659Z,78.10
2023-01-12T07:13:13.703Z,78.11
2023-01-12T07:15:40.454Z,78.12
2023-01-12T07:18:07.223Z,78.44
2023-01-12T07:20:33.928Z,78.23
2023-01-12T07:23:00.864Z,78.48
2023-01-12T07:25:27.608Z,78.42
2023-01-12T07:27:58.073Z,78.59
2023-01-12T07:30:25.401Z,78.83
2023-01-12T07:32:52.215Z,78.84
2023-01-12T07:35:19.019Z,78.88
2023-01-12T07:37:53.908Z,78.72
2023-01-12T07:40:20.730Z,78.74
2023-01-12T07:42:47.521Z,78.62
2023-01-12T07:45:14.342Z,78.53
2023-01-12T07:47:41.115Z,78.65
2023-01-12T07:50:08.840Z,78.53
2023-01-12T07:52:35.724Z,78.33
2023-01-12T07:55:02.447Z,78.29
2023-01-12T07:57:29.491Z,78.28
2023-01-12T07:59:56.248Z,78.14
2023-01-12T08:02:23.030Z,77.91
2023-01-12T08:04:49.919Z,77.99
2023-01-12T08:07:16.603Z,78.06
2023-01-12T08:09:43.435Z,77.95
2023-01-12T08:12:10.199Z,77.86
2023-01-12T08:14:37.953Z,77.64
2023-01-12T08:17:07.924Z,77.33
2023-01-12T08:19:44.995Z,77.29
2023-01-12T08:22:19.071Z,77.22
2023-01-12T08:24:52.262Z,77.12
2023-01-12T08:27:19.141Z,77.02
2023-01-12T08:29:47.790Z,77.02
2023-01-12T08:32:16.532Z,76.88
2023-01-12T08:34:44.574Z,76.72
2023-01-12T08:37:12.847Z,76.43
2023-01-12T08:39:39.726Z,76.29
2023-01-12T08:42:06.810Z,76.11
2023-01-12T08:44:35.463Z,76.09
2023-01-12T08:47:03.266Z,75.77
2023-01-12T08:49:30.384Z,75.41
2023-01-12T08:51:57.196Z,75.48
2023-01-12T08:54:24.083Z,75.01
2023-01-12T08:56:51.304Z,75.03
2023-01-12T08:59:19.421Z,74.85
2023-01-12T09:01:46.387Z,74.74
2023-01-12T09:04:13.332Z,74.84
2023-01-12T09:06:44.451Z,74.38
2023-01-12T09:09:19.372Z,74.30
2023-01-12T09:11:47.102Z,73.97
2023-01-12T09:14:14.087Z,73.93
2023-01-12T09:16:41.024Z,73.84
2023-01-12T09:19:07.994Z,73.85
2023-01-12T09:21:37.760Z,74.01
2023-01-12T09:24:05.305Z,74.02
2023-01-12T09:26:36.057Z,74.10
2023-01-12T09:29:04.445Z,74.21
2023-01-12T09:31:32.415Z,74.52
2023-01-12T09:33:59.546Z,74.30
2023-01-12T09:36:34.182Z,74.49
2023-01-12T09:39:02.282Z,74.29
2023-01-12T09:41:48.203Z,74.41
2023-01-12T09:45:03.372Z,74.58
2023-01-12T09:47:39.852Z,74.44
2023-01-12T09:50:11.020Z,74.60
2023-01-12T09:52:44.880Z,75.00
2023-01-12T09:55:19.666Z,76.06
2023-01-12T09:58:19.449Z,76.38
2023-01-12T10:00:54.372Z,76.54
2023-01-12T10:03:30.077Z,76.71
2023-01-12T10:05:59.327Z,77.00
2023-01-12T10:08:48.112Z,77.17
2023-01-12T10:11:35.956Z,77.45
2023-01-12T10:14:22.487Z,77.16
2023-01-12T10:17:19.283Z,77.10
2023-01-12T10:20:02.624Z,76.95
2023-01-12T10:22:56.326Z,76.85
2023-01-12T10:25:29.305Z,76.94
2023-01-12T10:27:57.955Z,77.27
2023-01-12T10:30:30.479Z,77.00
2023-01-12T10:32:58.821Z,76.43
2023-01-12T10:35:25.909Z,76.37
2023-01-12T10:37:56.477Z,75.99
2023-01-12T10:40:26.998Z,75.86
2023-01-12T10:43:32.130Z,75.55
2023-01-12T10:46:22.513Z,75.55
2023-01-12T10:48:53.886Z,75.26
2023-01-12T10:51:27.975Z,75.47
2023-01-12T10:53:57.585Z,75.87
2023-01-12T10:56:27.823Z,76.17
2023-01-12T10:59:19.724Z,76.51
2023-01-12T11:01:51.242Z,76.74
2023-01-12T11:04:23.229Z,77.10
2023-01-12T11:07:05.245Z,77.22
2023-01-12T11:09:32.363Z,77.29
2023-01-12T11:12:03.681Z,77.32
2023-01-12T11:14:31.823Z,77.45
2023-01-12T11:17:24.797Z,77.74
2023-01-12T11:19:51.500Z,78.05
2023-01-12T11:22:27.505Z,78.24
2023-01-12T11:25:09.886Z,78.03
2023-01-12T11:27:42.224Z,78.17
2023-01-12T11:30:32.093Z,78.16
2023-01-12T11:33:01.624Z,78.08
2023-01-12T11:35:41.937Z,77.69
2023-01-12T11:38:45.084Z,77.42
2023-01-12T11:41:29.239Z,76.42
2023-01-12T11:44:18.234Z,75.98
2023-01-12T11:46:52.341Z,76.15
2023-01-12T11:49:19.111Z,76.60
2023-01-12T11:51:48.774Z,76.85
2023-01-12T11:54:16.924Z,76.95
2023-01-12T11:57:01.504Z,77.43
2023-01-12T12:00:04.560Z,77.47
2023-01-12T12:02:46.936Z,77.66
2023-01-12T12:05:21.152Z,77.68
2023-01-12T12:07:55.527Z,77.77
2023-01-12T12:10:24.303Z,77.50
2023-01-12T12:13:10.623Z,77.33
2023-01-12T12:16:15.225Z,77.13
2023-01-12T12:18:50.031Z,77.07
2023-01-12T12:21:44.481Z,76.99
2023-01-12T12:24:39.222Z,77.10
2023-01-12T12:27:35.411Z,77.38
2023-01-12T12:30:02.113Z,77.80
2023-01-12T12:32:41.193Z,78.02
2023-01-12T12:35:26.791Z,78.57
2023-01-12T12:38:12.514Z,78.52
2023-01-12T12:41:25.843Z,78.71
2023-01-12T12:44:44.400Z,78.85
2023-01-12T12:47:36.342Z,78.92
2023-01-12T12:50:04.011Z,78.54
2023-01-12T12:52:34.976Z,78.43
2023-01-12T12:55:01.701Z,78.31
2023-01-12T12:57:28.419Z,78.23
2023-01-12T12:59:57.075Z,78.25
2023-01-12T13:03:00.070Z,78.25
2023-01-12T13:05:41.917Z,78.40
2023-01-12T13:08:19.216Z,78.57
2023-01-12T13:10:59.963Z,79.05
2023-01-12T13:13:34.034Z,78.90
2023-01-12T13:16:10.083Z,79.06
2023-01-12T13:19:04.503Z,79.26
2023-01-12T13:21:50.620Z,79.46
2023-01-12T13:24:22.372Z,79.58
2023-01-12T13:26:53.873Z,79.74
2023-01-12T13:29:23.797Z,79.88
2023-01-12T13:31:51.167Z,79.96
2023-01-12T13:34:36.449Z,80.16
2023-01-12T13:37:19.150Z,80.10
2023-01-12T13:39:52.504Z,80.15
2023-01-12T13:42:52.701Z,80.45
2023-01-12T13:45:19.852Z,80.28
2023-01-12T13:47:47.444Z,80.31
2023-01-12T13:50:18.246Z,80.64
2023-01-12T13:52:44.981Z,80.67
2023-01-12T13:55:22.946Z,80.64
2023-01-12T13:57:57.756Z,80.83
2023-01-12T14:00:25.055Z,80.82
2023-01-12T14:02:52.219Z,80.62
2023-01-12T14:05:40.543Z,80.86
2023-01-12T14:08:50.140Z,80.95
2023-01-12T14:11:36.492Z,80.95
2023-01-12T14:14:31.343Z,80.82
2023-01-12T14:17:16.825Z,80.88
2023-01-12T14:19:49.683Z,81.07
2023-01-12T14:22:19.755Z,80.77
2023-01-12T14:24:46.492Z,80.70
2023-01-12T14:27:21.311Z,80.69
2023-01-12T14:29:48.067Z,80.85
2023-01-12T14:32:14.768Z,80.87
2023-01-12T14:34:48.992Z,80.97
2023-01-12T14:37:34.349Z,80.93
2023-01-12T14:40:01.143Z,81.41
2023-01-12T14:42:46.784Z,81.58
2023-01-12T14:45:44.773Z,81.60
2023-01-12T14:48:28.108Z,81.70
2023-01-12T14:51:01.547Z,82.02
2023-01-12T14:53:33.135Z,82.16
2023-01-12T14:56:15.520Z,82.19
2023-01-12T14:58:43.816Z,82.46
2023-01-12T15:01:11.192Z,82.36
2023-01-12T15:03:43.754Z,82.59
2023-01-12T15:06:14.833Z,82.60
2023-01-12T15:08:52.581Z,82.62
2023-01-12T15:11:32.164Z,82.48
2023-01-12T15:13:59.657Z,82.80
2023-01-12T15:16:45.370Z,82.81
2023-01-12T15:19:30.861Z,83.24
2023-01-12T15:22:16.653Z,83.20
2023-01-12T15:25:02.083Z,83.24
2023-01-12T15:27:29.399Z,83.41
2023-01-12T15:29:56.492Z,83.37
2023-01-12T15:32:45.499Z,83.34
2023-01-12T15:35:18.295Z,83.25
2023-01-12T15:37:45.218Z,83.17
2023-01-12T15:40:15.196Z,83.19
2023-01-12T15:42:42.331Z,83.24
2023-01-12T15:45:31.983Z,83.12
2023-01-12T15:47:58.736Z,83.28
2023-01-12T15:50:25.619Z,83.09
2023-01-12T15:52:52.819Z,82.98
2023-01-12T15:55:20.975Z,83.07
2023-01-12T15:57:47.678Z,82.98
2023-01-12T16:00:16.193Z,83.14
2023-01-12T16:02:45.590Z,83.10
2023-01-12T16:05:12.429Z,82.94
2023-01-12T16:07:39.167Z,82.90
2023-01-12T16:10:06.676Z,83.09
2023-01-12T16:12:33.388Z,83.04
2023-01-12T16:15:01.102Z,82.89
2023-01-12T16:17:27.884Z,82.65
2023-01-12T16:19:54.768Z,82.70
2023-01-12T16:22:26.596Z,82.53
2023-01-12T16:24:54.994Z,82.59
2023-01-12T16:27:23.376Z,82.56
2023-01-12T16:29:50.423Z,82.49
2023-01-12T16:32:17.777Z,82.41
2023-01-12T16:34:45.953Z,82.38
2023-01-12T16:37:13.765Z,82.35
2023-01-12T16:39:41.093Z,82.15
2023-01-12T16:42:08.333Z,82.11
2023-01-12T16:44:38.602Z,82.01
2023-01-12T16:47:06.605Z,82.10
2023-01-12T16:49:36.103Z,81.76
2023-01-12T16:52:04.003Z,81.76
2023-01-12T16:54:30.895Z,81.52
2023-01-12T16:56:58.975Z,81.43
2023-01-12T16:59:28.495Z,81.21
2023-01-12T17:01:55.614Z,81.10
2023-01-12T17:04:23.365Z,80.96
2023-01-12T17:06:50.964Z,80.87
2023-01-12T17:09:18.065Z,80.64
2023-01-12T17:11:45.068Z,80.69
2023-01-12T17:14:24.609Z,80.43
2023-01-12T17:16:52.598Z,80.30
2023-01-12T17:19:20.029Z,80.06
2023-01-12T17:21:47.220Z,79.96
2023-01-12T17:24:17.958Z,79.80
2023-01-12T17:26:45.383Z,79.64
2023-01-12T17:29:12.173Z,79.45
2023-01-12T17:31:40.008Z,79.31
2023-01-12T17:34:08.000Z,79.16
2023-01-12T17:36:34.729Z,79.06
2023-01-12T17:39:01.440Z,79.04
2023-01-12T17:41:47.010Z,78.77
2023-01-12T17:44:13.787Z,78.61
2023-01-12T17:46:40.583Z,78.71
2023-01-12T17:49:08.211Z,78.66
2023-01-12T17:51:35.518Z,78.63
2023-01-12T17:54:03.338Z,78.73
2023-01-12T17:56:31.605Z,78.82
2023-01-12T17:58:58.799Z,78.93
2023-01-12T18:01:26.822Z,78.63
2023-01-12T18:03:53.621Z,78.52
2023-01-12T18:06:26.378Z,78.65
2023-01-12T18:08:56.562Z,78.54
2023-01-12T18:11:23.667Z,78.65
2023-01-12T18:13:50.417Z,78.47
2023-01-12T18:16:17.216Z,78.46
2023-01-12T18:18:44.225Z,78.68
2023-01-12T18:21:15.378Z,78.88
2023-01-12T18:23:43.596Z,78.81
2023-01-12T18:26:16.130Z,78.92
2023-01-12T18:28:43.093Z,79.01
2023-01-12T18:31:14.948Z,78.93
2023-01-12T18:33:41.989Z,79.07
2023-01-12T18:36:10.467Z,79.13
2023-01-12T18:38:40.173Z,79.05
2023-01-12T18:41:25.710Z,79.06
2023-01-12T18:43:53.014Z,78.92
2023-01-12T18:46:20.022Z,78.92
2023-01-12T18:48:47.623Z,79.11
2023-01-12T18:51:33.148Z,79.65
2023-01-12T18:54:00.433Z,79.64
2023-01-12T18:56:27.314Z,79.76
2023-01-12T18:58:54.146Z,79.76
2023-01-12T19:01:27.072Z,79.18
2023-01-12T19:03:54.083Z,79.17
2023-01-12T19:06:40.613Z,79.30
2023-01-12T19:09:26.403Z,79.21
2023-01-12T19:11:53.221Z,79.10
2023-01-12T19:14:38.817Z,79.16
2023-01-12T19:17:24.532Z,79.28
2023-01-12T19:19:51.432Z,79.28
2023-01-12T19:22:37.040Z,79.12
2023-01-12T19:25:23.309Z,79.24
2023-01-12T19:28:09.302Z,79.12
2023-01-12T19:30:39.111Z,78.99
2023-01-12T19:33:14.949Z,79.07
2023-01-12T19:35:45.814Z,79.18
2023-01-12T19:38:13.672Z,78.96
2023-01-12T19:40:46.837Z,79.05
2023-01-12T19:43:19.019Z,79.08
2023-01-12T19:45:48.178Z,78.77
2023-01-12T19:48:15.859Z,78.72
2023-01-12T19:50:44.107Z,78.81
2023-01-12T19:53:15.743Z,78.73
2023-01-12T19:55:42.621Z,79.07
2023-01-12T19:58:09.513Z,78.96
2023-01-12T20:00:46.205Z,78.75
2023-01-12T20:03:14.391Z,78.84
2023-01-12T20:05:42.136Z,78.75
2023-01-12T20:08:09.352Z,79.09
2023-01-12T20:10:38.204Z,79.20
2023-01-12T20:13:06.246Z,78.65
2023-01-12T20:15:33.608Z,78.67
2023-01-12T20:18:02.194Z,78.62
2023-01-12T20:20:29.907Z,78.76
2023-01-12T20:22:56.629Z,78.79
2023-01-12T20:25:24.133Z,78.84
2023-01-12T20:27:51.337Z,78.88
2023-01-12T20:30:31.941Z,78.80
2023-01-12T20:33:03.617Z,78.77
2023-01-12T20:35:30.358Z,78.68
2023-01-12T20:37:57.332Z,78.76
2023-01-12T20:40:24.062Z,78.75
2023-01-12T20:42:50.808Z,78.74
2023-01-12T20:45:19.283Z,78.75
2023-01-12T20:47:46.039Z,78.58
2023-01-12T20:50:14.789Z,78.64
2023-01-12T20:52:41.792Z,78.83
2023-01-12T20:55:08.699Z,78.78
2023-01-12T20:57:36.722Z,78.65
2023-01-12T21:00:05.391Z,78.82
2023-01-12T21:02:32.222Z,78.79
2023-01-12T21:04:58.991Z,78.77
2023-01-12T21:07:25.787Z,78.76
2023-01-12T21:09:52.652Z,78.87
2023-01-12T21:12:19.772Z,78.82
2023-01-12T21:14:46.823Z,78.63
2023-01-12T21:17:13.574Z,78.81
2023-01-12T21:19:40.598Z,78.58
2023-01-12T21:22:07.296Z,78.52
2023-01-12T21:24:34.200Z,78.64
2023-01-12T21:27:01.056Z,78.55
2023-01-12T21:29:27.865Z,78.54
2023-01-12T21:31:54.630Z,78.69
2023-01-12T21:34:21.877Z,78.86
2023-01-12T21:36:49.081Z,78.87
2023-01-12T21:39:15.989Z,78.98
2023-01-12T21:42:01.488Z,79.22
2023-01-12T21:44:28.287Z,79.17
2023-01-12T21:46:55.004Z,79.18
2023-01-12T21:49:21.769Z,79.17
2023-01-12T21:51:48.666Z,79.31
2023-01-12T21:54:15.377Z,79.46
2023-01-12T21:56:42.044Z,79.55
2023-01-12T21:59:10.288Z,79.34
2023-01-12T22:01:37.193Z,79.59
2023-01-12T22:04:04.184Z,79.42
2023-01-12T22:06:31.271Z,79.42
2023-01-12T22:08:58.180Z,79.47
2023-01-12T22:11:24.971Z,79.24
2023-01-12T22:13:51.782Z,79.50
2023-01-12T22:16:18.968Z,79.45
2023-01-12T22:18:47.258Z,79.37
2023-01-12T22:21:14.042Z,79.40
2023-01-12T22:23:40.763Z,79.45
2023-01-12T22:26:09.468Z,79.32
2023-01-12T22:28:37.423Z,79.29
2023-01-12T22:31:23.573Z,79.40
2023-01-12T22:33:58.547Z,79.32
2023-01-12T22:36:25.320Z,79.46
2023-01-12T22:38:52.021Z,79.36
2023-01-12T22:41:21.756Z,79.20
2023-01-12T22:43:49.260Z,79.24
2023-01-12T22:46:25.773Z,79.41
2023-01-12T22:48:53.765Z,79.21
2023-01-12T22:51:24.856Z,79.25
2023-01-12T22:53:51.643Z,79.47
2023-01-12T22:56:18.383Z,79.30
2023-01-12T22:58:52.433Z,79.20
2023-01-12T23:01:21.511Z,79.27
2023-01-12T23:03:48.760Z,79.49
2023-01-12T23:06:16.654Z,79.62
2023-01-12T23:08:43.895Z,79.93
2023-01-12T23:11:15.729Z,79.79
2023-01-12T23:13:43.170Z,80.02
2023-01-12T23:16:10.754Z,80.04
2023-01-12T23:18:38.747Z,80.04
2023-01-12T23:21:35.523Z,80.07
2023-01-12T23:24:02.301Z,80.13
2023-01-12T23:26:31.207Z,80.28
2023-01-12T23:29:00.309Z,80.12
2023-01-12T23:31:29.257Z,80.27
2023-01-12T23:33:57.151Z,80.33
2023-01-12T23:36:25.715Z,80.16
2023-01-12T23:42:52.180Z,79.91
2023-01-12T23:45:18.961Z,80.04
2023-01-12T23:47:45.742Z,80.05
2023-01-12T23:50:12.711Z,79.92
2023-01-12T23:52:39.487Z,79.95
2023-01-12T23:55:07.057Z,79.89
2023-01-12T23:57:34.401Z,79.75
